sensor_id;sensor_type;location;lat;lon;timestamp;P1;durP1;ratioP1;P2;durP2;ratioP2
7359;SDS011;3720;48.274;7.796;2023-11-19T00:01:04;3.42;;;1.60;;
7359;SDS011;3720;48.274;7.796;2023-11-19T00:03:36;4.53;;;1.80;;
7359;SDS011;3720;48.274;7.796;2023-11-19T00:06:08;6.22;;;1.85;;
7359;SDS011;3720;48.274;7.796;2023-11-19T00:08:41;2.25;;;1.80;;
7359;SDS011;3720;48.274;7.796;2023-11-19T00:11:13;4.00;;;1.67;;
7359;SDS011;3720;48.274;7.796;2023-11-19T00:13:47;3.85;;;1.90;;
7359;SDS011;3720;48.274;7.796;2023-11-19T00:16:19;6.13;;;2.00;;
7359;SDS011;3720;48.274;7.796;2023-11-19T00:18:50;5.25;;;1.85;;
7359;SDS011;3720;48.274;7.796;2023-11-19T00:21:22;3.53;;;1.77;;
7359;SDS011;3720;48.274;7.796;2023-11-19T00:23:54;3.75;;;1.83;;
7359;SDS011;3720;48.274;7.796;2023-11-19T00:26:28;2.47;;;1.65;;
7359;SDS011;3720;48.274;7.796;2023-11-19T00:29:01;3.83;;;1.80;;
7359;SDS011;3720;48.274;7.796;2023-11-19T00:31:33;4.20;;;1.95;;
7359;SDS011;3720;48.274;7.796;2023-11-19T00:34:05;3.95;;;1.58;;
7359;SDS011;3720;48.274;7.796;2023-11-19T00:36:37;2.45;;;1.60;;
7359;SDS011;3720;48.274;7.796;2023-11-19T00:39:09;3.25;;;2.00;;
7359;SDS011;3720;48.274;7.796;2023-11-19T00:41:41;2.58;;;1.73;;
7359;SDS011;3720;48.274;7.796;2023-11-19T00:44:14;3.20;;;1.80;;
7359;SDS011;3720;48.274;7.796;2023-11-19T00:46:46;3.15;;;1.63;;
7359;SDS011;3720;48.274;7.796;2023-11-19T00:49:17;3.10;;;1.58;;
7359;SDS011;3720;48.274;7.796;2023-11-19T00:51:49;4.53;;;1.92;;
7359;SDS011;3720;48.274;7.796;2023-11-19T00:54:21;3.80;;;1.75;;
7359;SDS011;3720;48.274;7.796;2023-11-19T00:56:55;2.03;;;1.50;;
7359;SDS011;3720;48.274;7.796;2023-11-19T00:59:28;3.80;;;1.88;;
7359;SDS011;3720;48.274;7.796;2023-11-19T01:02:00;2.55;;;1.52;;
7359;SDS011;3720;48.274;7.796;2023-11-19T01:04:33;2.40;;;1.63;;
7359;SDS011;3720;48.274;7.796;2023-11-19T01:07:06;3.28;;;1.90;;
7359;SDS011;3720;48.274;7.796;2023-11-19T01:09:42;3.00;;;2.00;;
7359;SDS011;3720;48.274;7.796;2023-11-19T01:12:14;2.42;;;1.70;;
7359;SDS011;3720;48.274;7.796;2023-11-19T01:14:48;3.08;;;1.80;;
7359;SDS011;3720;48.274;7.796;2023-11-19T01:17:19;3.03;;;1.90;;
7359;SDS011;3720;48.274;7.796;2023-11-19T01:19:51;2.70;;;1.67;;
7359;SDS011;3720;48.274;7.796;2023-11-19T01:22:23;4.07;;;2.03;;
7359;SDS011;3720;48.274;7.796;2023-11-19T01:24:55;2.47;;;1.30;;
7359;SDS011;3720;48.274;7.796;2023-11-19T01:27:28;2.97;;;1.63;;
7359;SDS011;3720;48.274;7.796;2023-11-19T01:30:01;3.58;;;1.40;;
7359;SDS011;3720;48.274;7.796;2023-11-19T01:32:36;2.03;;;1.50;;
7359;SDS011;3720;48.274;7.796;2023-11-19T01:35:07;3.42;;;1.50;;
7359;SDS011;3720;48.274;7.796;2023-11-19T01:37:39;4.80;;;1.70;;
7359;SDS011;3720;48.274;7.796;2023-11-19T01:40:11;4.63;;;1.70;;
7359;SDS011;3720;48.274;7.796;2023-11-19T01:42:43;4.13;;;1.50;;
7359;SDS011;3720;48.274;7.796;2023-11-19T01:45:21;5.78;;;1.60;;
7359;SDS011;3720;48.274;7.796;2023-11-19T01:47:58;1.95;;;1.30;;
7359;SDS011;3720;48.274;7.796;2023-11-19T01:50:33;3.00;;;1.30;;
7359;SDS011;3720;48.274;7.796;2023-11-19T01:53:06;3.35;;;1.33;;
7359;SDS011;3720;48.274;7.796;2023-11-19T01:55:38;1.80;;;1.20;;
7359;SDS011;3720;48.274;7.796;2023-11-19T01:58:10;2.88;;;1.30;;
7359;SDS011;3720;48.274;7.796;2023-11-19T02:00:44;4.82;;;1.40;;
7359;SDS011;3720;48.274;7.796;2023-11-19T02:03:16;4.88;;;1.40;;
7359;SDS011;3720;48.274;7.796;2023-11-19T02:05:49;3.10;;;1.20;;
7359;SDS011;3720;48.274;7.796;2023-11-19T02:08:21;2.38;;;1.20;;
7359;SDS011;3720;48.274;7.796;2023-11-19T02:10:53;2.00;;;1.17;;
7359;SDS011;3720;48.274;7.796;2023-11-19T02:13:27;2.15;;;1.10;;
7359;SDS011;3720;48.274;7.796;2023-11-19T02:16:01;3.28;;;1.20;;
7359;SDS011;3720;48.274;7.796;2023-11-19T02:18:33;1.92;;;1.10;;
7359;SDS011;3720;48.274;7.796;2023-11-19T02:21:05;1.95;;;1.17;;
7359;SDS011;3720;48.274;7.796;2023-11-19T02:23:37;2.97;;;1.50;;
7359;SDS011;3720;48.274;7.796;2023-11-19T02:26:13;2.67;;;1.30;;
7359;SDS011;3720;48.274;7.796;2023-11-19T02:28:50;2.95;;;1.20;;
7359;SDS011;3720;48.274;7.796;2023-11-19T02:31:22;2.33;;;1.17;;
7359;SDS011;3720;48.274;7.796;2023-11-19T02:33:54;2.65;;;1.20;;
7359;SDS011;3720;48.274;7.796;2023-11-19T02:36:26;2.58;;;1.10;;
7359;SDS011;3720;48.274;7.796;2023-11-19T02:38:58;3.10;;;1.35;;
7359;SDS011;3720;48.274;7.796;2023-11-19T02:41:29;2.35;;;1.27;;
7359;SDS011;3720;48.274;7.796;2023-11-19T02:44:03;2.35;;;1.13;;
7359;SDS011;3720;48.274;7.796;2023-11-19T02:46:35;2.08;;;0.93;;
7359;SDS011;3720;48.274;7.796;2023-11-19T02:49:07;2.75;;;1.15;;
7359;SDS011;3720;48.274;7.796;2023-11-19T02:51:39;1.50;;;1.10;;
7359;SDS011;3720;48.274;7.796;2023-11-19T02:54:11;1.65;;;1.10;;
7359;SDS011;3720;48.274;7.796;2023-11-19T02:56:43;2.67;;;1.20;;
7359;SDS011;3720;48.274;7.796;2023-11-19T02:59:19;2.80;;;1.08;;
7359;SDS011;3720;48.274;7.796;2023-11-19T03:01:57;3.97;;;1.40;;
7359;SDS011;3720;48.274;7.796;2023-11-19T03:04:29;4.22;;;1.10;;
7359;SDS011;3720;48.274;7.796;2023-11-19T03:07:01;4.57;;;1.20;;
7359;SDS011;3720;48.274;7.796;2023-11-19T03:09:33;1.85;;;1.25;;
7359;SDS011;3720;48.274;7.796;2023-11-19T03:12:05;1.90;;;1.20;;
7359;SDS011;3720;48.274;7.796;2023-11-19T03:14:39;1.50;;;1.00;;
7359;SDS011;3720;48.274;7.796;2023-11-19T03:17:11;2.38;;;1.13;;
7359;SDS011;3720;48.274;7.796;2023-11-19T03:19:43;1.67;;;1.08;;
7359;SDS011;3720;48.274;7.796;2023-11-19T03:22:15;2.17;;;1.10;;
7359;SDS011;3720;48.274;7.796;2023-11-19T03:24:46;2.08;;;1.00;;
7359;SDS011;3720;48.274;7.796;2023-11-19T03:27:21;3.38;;;1.15;;
7359;SDS011;3720;48.274;7.796;2023-11-19T03:29:54;2.40;;;0.98;;
7359;SDS011;3720;48.274;7.796;2023-11-19T03:32:26;2.42;;;1.00;;
7359;SDS011;3720;48.274;7.796;2023-11-19T03:34:58;2.45;;;1.20;;
7359;SDS011;3720;48.274;7.796;2023-11-19T03:37:30;1.80;;;1.13;;
7359;SDS011;3720;48.274;7.796;2023-11-19T03:40:03;1.38;;;0.95;;
7359;SDS011;3720;48.274;7.796;2023-11-19T03:42:36;1.95;;;1.02;;
7359;SDS011;3720;48.274;7.796;2023-11-19T03:45:11;1.88;;;1.10;;
7359;SDS011;3720;48.274;7.796;2023-11-19T03:47:43;2.85;;;1.10;;
7359;SDS011;3720;48.274;7.796;2023-11-19T03:50:14;2.20;;;0.90;;
7359;SDS011;3720;48.274;7.796;2023-11-19T03:52:46;2.25;;;1.00;;
7359;SDS011;3720;48.274;7.796;2023-11-19T03:55:18;2.58;;;1.10;;
7359;SDS011;3720;48.274;7.796;2023-11-19T03:57:50;2.03;;;1.10;;
7359;SDS011;3720;48.274;7.796;2023-11-19T04:00:23;1.40;;;0.90;;
7359;SDS011;3720;48.274;7.796;2023-11-19T04:02:55;1.65;;;0.90;;
7359;SDS011;3720;48.274;7.796;2023-11-19T04:05:27;2.05;;;1.08;;
7359;SDS011;3720;48.274;7.796;2023-11-19T04:07:58;1.92;;;1.10;;
7359;SDS011;3720;48.274;7.796;2023-11-19T04:10:30;1.77;;;0.90;;
7359;SDS011;3720;48.274;7.796;2023-11-19T04:13:02;1.90;;;1.10;;
7359;SDS011;3720;48.274;7.796;2023-11-19T04:15:35;2.67;;;1.20;;
7359;SDS011;3720;48.274;7.796;2023-11-19T04:18:07;1.30;;;0.90;;
7359;SDS011;3720;48.274;7.796;2023-11-19T04:20:39;1.90;;;0.95;;
7359;SDS011;3720;48.274;7.796;2023-11-19T04:23:12;1.35;;;1.00;;
7359;SDS011;3720;48.274;7.796;2023-11-19T04:25:43;1.52;;;1.00;;
7359;SDS011;3720;48.274;7.796;2023-11-19T04:28:16;3.28;;;1.00;;
7359;SDS011;3720;48.274;7.796;2023-11-19T04:30:49;2.45;;;1.00;;
7359;SDS011;3720;48.274;7.796;2023-11-19T04:33:21;1.40;;;1.00;;
7359;SDS011;3720;48.274;7.796;2023-11-19T04:35:53;2.22;;;1.00;;
7359;SDS011;3720;48.274;7.796;2023-11-19T04:38:25;1.73;;;0.75;;
7359;SDS011;3720;48.274;7.796;2023-11-19T04:40:57;1.10;;;0.85;;
7359;SDS011;3720;48.274;7.796;2023-11-19T04:43:29;1.00;;;0.90;;
7359;SDS011;3720;48.274;7.796;2023-11-19T04:46:04;1.05;;;0.80;;
7359;SDS011;3720;48.274;7.796;2023-11-19T04:48:37;1.35;;;0.80;;
7359;SDS011;3720;48.274;7.796;2023-11-19T04:51:08;1.83;;;0.98;;
7359;SDS011;3720;48.274;7.796;2023-11-19T04:53:40;1.10;;;0.95;;
7359;SDS011;3720;48.274;7.796;2023-11-19T04:56:12;1.15;;;1.00;;
7359;SDS011;3720;48.274;7.796;2023-11-19T04:58:45;1.00;;;0.90;;
7359;SDS011;3720;48.274;7.796;2023-11-19T05:01:18;2.35;;;1.10;;
7359;SDS011;3720;48.274;7.796;2023-11-19T05:03:50;2.88;;;0.80;;
7359;SDS011;3720;48.274;7.796;2023-11-19T05:06:22;1.15;;;0.80;;
7359;SDS011;3720;48.274;7.796;2023-11-19T05:08:54;2.15;;;0.90;;
7359;SDS011;3720;48.274;7.796;2023-11-19T05:11:26;1.02;;;0.80;;
7359;SDS011;3720;48.274;7.796;2023-11-19T05:13:59;1.52;;;0.68;;
7359;SDS011;3720;48.274;7.796;2023-11-19T05:16:32;0.85;;;0.70;;
7359;SDS011;3720;48.274;7.796;2023-11-19T05:19:05;1.65;;;0.70;;
7359;SDS011;3720;48.274;7.796;2023-11-19T05:21:37;1.25;;;0.75;;
7359;SDS011;3720;48.274;7.796;2023-11-19T05:24:08;0.70;;;0.60;;
7359;SDS011;3720;48.274;7.796;2023-11-19T05:26:41;1.35;;;0.80;;
7359;SDS011;3720;48.274;7.796;2023-11-19T05:29:13;1.65;;;0.80;;
7359;SDS011;3720;48.274;7.796;2023-11-19T05:31:46;0.90;;;0.60;;
7359;SDS011;3720;48.274;7.796;2023-11-19T05:34:18;0.98;;;0.80;;
7359;SDS011;3720;48.274;7.796;2023-11-19T05:36:50;0.65;;;0.65;;
7359;SDS011;3720;48.274;7.796;2023-11-19T05:39:22;1.00;;;0.70;;
7359;SDS011;3720;48.274;7.796;2023-11-19T05:41:54;0.70;;;0.57;;
7359;SDS011;3720;48.274;7.796;2023-11-19T05:44:26;0.60;;;0.60;;
7359;SDS011;3720;48.274;7.796;2023-11-19T05:46:59;0.68;;;0.60;;
7359;SDS011;3720;48.274;7.796;2023-11-19T05:49:31;1.00;;;0.50;;
7359;SDS011;3720;48.274;7.796;2023-11-19T05:52:03;0.55;;;0.55;;
7359;SDS011;3720;48.274;7.796;2023-11-19T05:54:37;0.85;;;0.50;;
7359;SDS011;3720;48.274;7.796;2023-11-19T05:57:09;0.47;;;0.47;;
7359;SDS011;3720;48.274;7.796;2023-11-19T05:59:42;2.40;;;0.60;;
7359;SDS011;3720;48.274;7.796;2023-11-19T06:02:15;1.52;;;0.50;;
7359;SDS011;3720;48.274;7.796;2023-11-19T06:04:47;1.85;;;0.70;;
7359;SDS011;3720;48.274;7.796;2023-11-19T06:07:19;0.75;;;0.60;;
7359;SDS011;3720;48.274;7.796;2023-11-19T06:09:51;1.40;;;0.60;;
7359;SDS011;3720;48.274;7.796;2023-11-19T06:12:23;2.13;;;0.60;;
7359;SDS011;3720;48.274;7.796;2023-11-19T06:14:55;0.95;;;0.60;;
7359;SDS011;3720;48.274;7.796;2023-11-19T06:17:28;2.00;;;0.68;;
7359;SDS011;3720;48.274;7.796;2023-11-19T06:20:00;0.80;;;0.65;;
7359;SDS011;3720;48.274;7.796;2023-11-19T06:22:34;0.80;;;0.70;;
7359;SDS011;3720;48.274;7.796;2023-11-19T06:25:06;1.33;;;0.60;;
7359;SDS011;3720;48.274;7.796;2023-11-19T06:27:38;0.50;;;0.50;;
7359;SDS011;3720;48.274;7.796;2023-11-19T06:30:11;1.45;;;0.60;;
7359;SDS011;3720;48.274;7.796;2023-11-19T06:32:44;1.83;;;0.50;;
7359;SDS011;3720;48.274;7.796;2023-11-19T06:35:16;1.63;;;0.50;;
7359;SDS011;3720;48.274;7.796;2023-11-19T06:37:48;0.90;;;0.55;;
7359;SDS011;3720;48.274;7.796;2023-11-19T06:40:20;0.43;;;0.43;;
7359;SDS011;3720;48.274;7.796;2023-11-19T06:42:52;0.73;;;0.40;;
7359;SDS011;3720;48.274;7.796;2023-11-19T06:45:24;0.40;;;0.40;;
7359;SDS011;3720;48.274;7.796;2023-11-19T06:47:57;0.57;;;0.40;;
7359;SDS011;3720;48.274;7.796;2023-11-19T06:50:29;2.50;;;0.52;;
7359;SDS011;3720;48.274;7.796;2023-11-19T06:53:01;0.60;;;0.40;;
7359;SDS011;3720;48.274;7.796;2023-11-19T06:55:34;1.30;;;0.50;;
7359;SDS011;3720;48.274;7.796;2023-11-19T06:58:06;0.52;;;0.30;;
7359;SDS011;3720;48.274;7.796;2023-11-19T07:00:38;0.40;;;0.40;;
7359;SDS011;3720;48.274;7.796;2023-11-19T07:03:11;0.98;;;0.30;;
7359;SDS011;3720;48.274;7.796;2023-11-19T07:05:43;2.15;;;0.50;;
7359;SDS011;3720;48.274;7.796;2023-11-19T07:08:15;0.38;;;0.30;;
7359;SDS011;3720;48.274;7.796;2023-11-19T07:10:47;2.20;;;0.55;;
7359;SDS011;3720;48.274;7.796;2023-11-19T07:13:19;0.98;;;0.30;;
7359;SDS011;3720;48.274;7.796;2023-11-19T07:15:51;0.40;;;0.40;;
7359;SDS011;3720;48.274;7.796;2023-11-19T07:18:24;1.00;;;0.60;;
7359;SDS011;3720;48.274;7.796;2023-11-19T07:20:56;1.08;;;0.50;;
7359;SDS011;3720;48.274;7.796;2023-11-19T07:23:29;1.67;;;0.50;;
7359;SDS011;3720;48.274;7.796;2023-11-19T07:26:04;1.15;;;0.50;;
7359;SDS011;3720;48.274;7.796;2023-11-19T07:28:38;1.05;;;0.70;;
7359;SDS011;3720;48.274;7.796;2023-11-19T07:31:12;0.88;;;0.60;;
7359;SDS011;3720;48.274;7.796;2023-11-19T07:33:46;0.82;;;0.65;;
7359;SDS011;3720;48.274;7.796;2023-11-19T07:36:18;1.90;;;0.82;;
7359;SDS011;3720;48.274;7.796;2023-11-19T07:38:50;3.10;;;0.70;;
7359;SDS011;3720;48.274;7.796;2023-11-19T07:41:21;0.82;;;0.55;;
7359;SDS011;3720;48.274;7.796;2023-11-19T07:43:55;2.72;;;0.70;;
7359;SDS011;3720;48.274;7.796;2023-11-19T07:46:27;1.63;;;0.70;;
7359;SDS011;3720;48.274;7.796;2023-11-19T07:49:00;1.10;;;0.70;;
7359;SDS011;3720;48.274;7.796;2023-11-19T07:51:32;1.42;;;0.70;;
7359;SDS011;3720;48.274;7.796;2023-11-19T07:54:04;1.73;;;0.68;;
7359;SDS011;3720;48.274;7.796;2023-11-19T07:56:36;0.80;;;0.80;;
7359;SDS011;3720;48.274;7.796;2023-11-19T07:59:08;1.67;;;0.80;;
7359;SDS011;3720;48.274;7.796;2023-11-19T08:01:40;0.82;;;0.60;;
7359;SDS011;3720;48.274;7.796;2023-11-19T08:04:13;1.17;;;0.70;;
7359;SDS011;3720;48.274;7.796;2023-11-19T08:06:45;0.90;;;0.60;;
7359;SDS011;3720;48.274;7.796;2023-11-19T08:09:17;0.60;;;0.60;;
7359;SDS011;3720;48.274;7.796;2023-11-19T08:11:49;0.60;;;0.50;;
7359;SDS011;3720;48.274;7.796;2023-11-19T08:14:21;1.55;;;0.60;;
7359;SDS011;3720;48.274;7.796;2023-11-19T08:16:53;1.38;;;0.77;;
7359;SDS011;3720;48.274;7.796;2023-11-19T08:19:26;3.55;;;0.95;;
7359;SDS011;3720;48.274;7.796;2023-11-19T08:21:58;1.05;;;0.60;;
7359;SDS011;3720;48.274;7.796;2023-11-19T08:24:30;1.13;;;0.70;;
7359;SDS011;3720;48.274;7.796;2023-11-19T08:27:02;1.10;;;0.70;;
7359;SDS011;3720;48.274;7.796;2023-11-19T08:29:34;1.80;;;0.70;;
7359;SDS011;3720;48.274;7.796;2023-11-19T08:32:06;3.10;;;0.60;;
7359;SDS011;3720;48.274;7.796;2023-11-19T08:34:39;1.38;;;0.60;;
7359;SDS011;3720;48.274;7.796;2023-11-19T08:37:11;1.30;;;0.60;;
7359;SDS011;3720;48.274;7.796;2023-11-19T08:39:44;2.17;;;0.70;;
7359;SDS011;3720;48.274;7.796;2023-11-19T08:42:16;1.35;;;0.80;;
7359;SDS011;3720;48.274;7.796;2023-11-19T08:44:48;3.30;;;0.70;;
7359;SDS011;3720;48.274;7.796;2023-11-19T08:47:24;1.73;;;0.73;;
7359;SDS011;3720;48.274;7.796;2023-11-19T08:49:57;1.13;;;0.70;;
7359;SDS011;3720;48.274;7.796;2023-11-19T08:52:29;1.35;;;0.70;;
7359;SDS011;3720;48.274;7.796;2023-11-19T08:55:01;2.85;;;1.00;;
7359;SDS011;3720;48.274;7.796;2023-11-19T08:57:35;1.92;;;0.80;;
7359;SDS011;3720;48.274;7.796;2023-11-19T09:00:07;1.70;;;0.70;;
7359;SDS011;3720;48.274;7.796;2023-11-19T09:02:39;1.88;;;0.80;;
7359;SDS011;3720;48.274;7.796;2023-11-19T09:05:12;2.15;;;0.77;;
7359;SDS011;3720;48.274;7.796;2023-11-19T09:07:44;1.80;;;0.80;;
7359;SDS011;3720;48.274;7.796;2023-11-19T09:10:16;2.67;;;1.00;;
7359;SDS011;3720;48.274;7.796;2023-11-19T09:12:48;1.05;;;0.65;;
7359;SDS011;3720;48.274;7.796;2023-11-19T09:15:20;1.85;;;0.93;;
7359;SDS011;3720;48.274;7.796;2023-11-19T09:17:51;1.40;;;0.90;;
7359;SDS011;3720;48.274;7.796;2023-11-19T09:20:25;2.03;;;0.85;;
7359;SDS011;3720;48.274;7.796;2023-11-19T09:22:56;2.47;;;0.93;;
7359;SDS011;3720;48.274;7.796;2023-11-19T09:25:28;4.32;;;1.00;;
7359;SDS011;3720;48.274;7.796;2023-11-19T09:28:00;2.55;;;1.08;;
7359;SDS011;3720;48.274;7.796;2023-11-19T09:30:32;1.95;;;0.90;;
7359;SDS011;3720;48.274;7.796;2023-11-19T09:33:04;3.72;;;0.93;;
7359;SDS011;3720;48.274;7.796;2023-11-19T09:35:37;1.10;;;0.90;;
7359;SDS011;3720;48.274;7.796;2023-11-19T09:38:09;2.03;;;0.90;;
7359;SDS011;3720;48.274;7.796;2023-11-19T09:40:42;1.90;;;1.00;;
7359;SDS011;3720;48.274;7.796;2023-11-19T09:43:14;1.83;;;0.98;;
7359;SDS011;3720;48.274;7.796;2023-11-19T09:45:48;3.50;;;1.10;;
7359;SDS011;3720;48.274;7.796;2023-11-19T09:48:20;2.08;;;1.02;;
7359;SDS011;3720;48.274;7.796;2023-11-19T09:50:57;2.75;;;1.20;;
7359;SDS011;3720;48.274;7.796;2023-11-19T09:53:29;2.28;;;1.20;;
7359;SDS011;3720;48.274;7.796;2023-11-19T09:56:01;2.47;;;1.17;;
7359;SDS011;3720;48.274;7.796;2023-11-19T09:58:34;4.47;;;1.27;;
7359;SDS011;3720;48.274;7.796;2023-11-19T10:01:06;3.90;;;1.40;;
7359;SDS011;3720;48.274;7.796;2023-11-19T10:03:40;2.90;;;1.40;;
7359;SDS011;3720;48.274;7.796;2023-11-19T10:06:15;1.77;;;1.20;;
7359;SDS011;3720;48.274;7.796;2023-11-19T10:08:49;2.00;;;1.20;;
7359;SDS011;3720;48.274;7.796;2023-11-19T10:11:20;2.88;;;1.10;;
7359;SDS011;3720;48.274;7.796;2023-11-19T10:13:53;2.17;;;1.27;;
7359;SDS011;3720;48.274;7.796;2023-11-19T10:16:28;3.50;;;1.38;;
7359;SDS011;3720;48.274;7.796;2023-11-19T10:19:01;1.87;;;1.30;;
7359;SDS011;3720;48.274;7.796;2023-11-19T10:21:34;2.08;;;1.25;;
7359;SDS011;3720;48.274;7.796;2023-11-19T10:24:06;2.90;;;1.35;;
7359;SDS011;3720;48.274;7.796;2023-11-19T10:26:38;2.38;;;1.40;;
7359;SDS011;3720;48.274;7.796;2023-11-19T10:29:12;2.95;;;1.60;;
7359;SDS011;3720;48.274;7.796;2023-11-19T10:31:49;3.40;;;1.42;;
7359;SDS011;3720;48.274;7.796;2023-11-19T10:34:27;2.58;;;1.40;;
7359;SDS011;3720;48.274;7.796;2023-11-19T10:37:01;3.75;;;1.15;;
7359;SDS011;3720;48.274;7.796;2023-11-19T10:42:24;1.55;;;1.20;;
7359;SDS011;3720;48.274;7.796;2023-11-19T10:44:56;3.17;;;1.05;;
7359;SDS011;3720;48.274;7.796;2023-11-19T10:47:28;2.28;;;1.23;;
7359;SDS011;3720;48.274;7.796;2023-11-19T10:50:01;2.67;;;1.10;;
7359;SDS011;3720;48.274;7.796;2023-11-19T10:52:34;1.60;;;1.23;;
7359;SDS011;3720;48.274;7.796;2023-11-19T10:55:06;4.03;;;1.40;;
7359;SDS011;3720;48.274;7.796;2023-11-19T10:57:44;2.30;;;1.40;;
7359;SDS011;3720;48.274;7.796;2023-11-19T11:00:20;3.55;;;1.40;;
7359;SDS011;3720;48.274;7.796;2023-11-19T11:02:55;1.63;;;1.23;;
7359;SDS011;3720;48.274;7.796;2023-11-19T11:08:05;3.15;;;1.40;;
7359;SDS011;3720;48.274;7.796;2023-11-19T11:10:40;2.72;;;1.13;;
7359;SDS011;3720;48.274;7.796;2023-11-19T11:13:15;3.92;;;1.20;;
7359;SDS011;3720;48.274;7.796;2023-11-19T11:15:48;1.77;;;1.20;;
7359;SDS011;3720;48.274;7.796;2023-11-19T11:18:21;2.65;;;1.10;;
7359;SDS011;3720;48.274;7.796;2023-11-19T11:20:54;2.05;;;0.90;;
7359;SDS011;3720;48.274;7.796;2023-11-19T11:26:49;1.52;;;0.90;;
7359;SDS011;3720;48.274;7.796;2023-11-19T11:29:34;0.95;;;0.80;;
7359;SDS011;3720;48.274;7.796;2023-11-19T11:32:15;1.58;;;0.93;;
7359;SDS011;3720;48.274;7.796;2023-11-19T11:35:00;2.35;;;1.10;;
7359;SDS011;3720;48.274;7.796;2023-11-19T11:37:49;1.48;;;0.82;;
7359;SDS011;3720;48.274;7.796;2023-11-19T11:40:25;1.20;;;0.93;;
7359;SDS011;3720;48.274;7.796;2023-11-19T11:42:57;3.33;;;1.00;;
7359;SDS011;3720;48.274;7.796;2023-11-19T11:45:36;2.22;;;0.90;;
7359;SDS011;3720;48.274;7.796;2023-11-19T11:48:08;2.20;;;0.95;;
7359;SDS011;3720;48.274;7.796;2023-11-19T11:50:53;2.03;;;0.95;;
7359;SDS011;3720;48.274;7.796;2023-11-19T11:53:27;0.95;;;0.77;;
7359;SDS011;3720;48.274;7.796;2023-11-19T11:56:03;2.92;;;1.10;;
7359;SDS011;3720;48.274;7.796;2023-11-19T11:58:38;1.23;;;0.80;;
7359;SDS011;3720;48.274;7.796;2023-11-19T12:01:14;1.88;;;0.95;;
7359;SDS011;3720;48.274;7.796;2023-11-19T12:03:50;2.25;;;0.90;;
7359;SDS011;3720;48.274;7.796;2023-11-19T12:06:23;1.38;;;0.90;;
7359;SDS011;3720;48.274;7.796;2023-11-19T12:08:59;1.17;;;0.80;;
7359;SDS011;3720;48.274;7.796;2023-11-19T12:11:32;0.90;;;0.80;;
7359;SDS011;3720;48.274;7.796;2023-11-19T12:14:05;4.50;;;0.90;;
7359;SDS011;3720;48.274;7.796;2023-11-19T12:16:36;1.90;;;1.00;;
7359;SDS011;3720;48.274;7.796;2023-11-19T12:19:09;2.90;;;1.00;;
7359;SDS011;3720;48.274;7.796;2023-11-19T12:21:41;1.80;;;1.00;;
7359;SDS011;3720;48.274;7.796;2023-11-19T12:24:12;1.15;;;0.98;;
7359;SDS011;3720;48.274;7.796;2023-11-19T12:26:46;1.70;;;1.08;;
7359;SDS011;3720;48.274;7.796;2023-11-19T12:29:20;1.70;;;1.00;;
7359;SDS011;3720;48.274;7.796;2023-11-19T12:31:53;3.10;;;1.10;;
7359;SDS011;3720;48.274;7.796;2023-11-19T12:34:25;1.40;;;1.10;;
7359;SDS011;3720;48.274;7.796;2023-11-19T12:36:57;2.78;;;1.20;;
7359;SDS011;3720;48.274;7.796;2023-11-19T12:39:30;1.88;;;1.10;;
7359;SDS011;3720;48.274;7.796;2023-11-19T12:42:04;3.25;;;1.30;;
7359;SDS011;3720;48.274;7.796;2023-11-19T12:44:36;1.15;;;0.93;;
7359;SDS011;3720;48.274;7.796;2023-11-19T12:47:08;3.35;;;1.20;;
7359;SDS011;3720;48.274;7.796;2023-11-19T12:49:41;2.30;;;1.10;;
7359;SDS011;3720;48.274;7.796;2023-11-19T12:52:13;1.45;;;1.02;;
7359;SDS011;3720;48.274;7.796;2023-11-19T12:54:45;2.85;;;1.00;;
7359;SDS011;3720;48.274;7.796;2023-11-19T12:57:18;2.75;;;1.05;;
7359;SDS011;3720;48.274;7.796;2023-11-19T12:59:55;1.73;;;1.08;;
7359;SDS011;3720;48.274;7.796;2023-11-19T13:05:24;2.78;;;1.08;;
7359;SDS011;3720;48.274;7.796;2023-11-19T13:07:58;3.38;;;1.10;;
7359;SDS011;3720;48.274;7.796;2023-11-19T13:10:31;4.32;;;0.88;;
7359;SDS011;3720;48.274;7.796;2023-11-19T13:13:05;2.20;;;0.85;;
7359;SDS011;3720;48.274;7.796;2023-11-19T13:15:38;3.60;;;0.90;;
7359;SDS011;3720;48.274;7.796;2023-11-19T13:18:10;1.67;;;0.90;;
7359;SDS011;3720;48.274;7.796;2023-11-19T13:20:42;1.23;;;0.73;;
7359;SDS011;3720;48.274;7.796;2023-11-19T13:23:14;2.15;;;0.90;;
7359;SDS011;3720;48.274;7.796;2023-11-19T13:25:46;1.92;;;0.73;;
7359;SDS011;3720;48.274;7.796;2023-11-19T13:28:20;1.30;;;0.75;;
7359;SDS011;3720;48.274;7.796;2023-11-19T13:30:52;4.35;;;1.10;;
7359;SDS011;3720;48.274;7.796;2023-11-19T13:33:24;0.93;;;0.68;;
7359;SDS011;3720;48.274;7.796;2023-11-19T13:35:56;3.00;;;0.70;;
7359;SDS011;3720;48.274;7.796;2023-11-19T13:38:29;1.80;;;0.90;;
7359;SDS011;3720;48.274;7.796;2023-11-19T13:41:01;1.10;;;0.98;;
7359;SDS011;3720;48.274;7.796;2023-11-19T13:43:35;1.63;;;1.00;;
7359;SDS011;3720;48.274;7.796;2023-11-19T13:46:07;2.17;;;0.90;;
7359;SDS011;3720;48.274;7.796;2023-11-19T13:48:40;1.20;;;0.98;;
7359;SDS011;3720;48.274;7.796;2023-11-19T13:51:12;2.13;;;1.23;;
7359;SDS011;3720;48.274;7.796;2023-11-19T13:53:43;1.58;;;1.10;;
7359;SDS011;3720;48.274;7.796;2023-11-19T13:56:15;1.80;;;0.98;;
7359;SDS011;3720;48.274;7.796;2023-11-19T13:58:49;1.65;;;0.95;;
7359;SDS011;3720;48.274;7.796;2023-11-19T14:01:23;1.40;;;0.90;;
7359;SDS011;3720;48.274;7.796;2023-11-19T14:03:56;2.25;;;1.00;;
7359;SDS011;3720;48.274;7.796;2023-11-19T14:06:28;1.90;;;1.10;;
7359;SDS011;3720;48.274;7.796;2023-11-19T14:09:00;2.22;;;1.20;;
7359;SDS011;3720;48.274;7.796;2023-11-19T14:11:32;1.67;;;0.90;;
7359;SDS011;3720;48.274;7.796;2023-11-19T14:14:06;2.03;;;1.05;;
7359;SDS011;3720;48.274;7.796;2023-11-19T14:16:38;4.07;;;1.02;;
7359;SDS011;3720;48.274;7.796;2023-11-19T14:19:10;2.88;;;0.80;;
7359;SDS011;3720;48.274;7.796;2023-11-19T14:21:42;1.40;;;0.90;;
7359;SDS011;3720;48.274;7.796;2023-11-19T14:24:14;2.67;;;1.20;;
7359;SDS011;3720;48.274;7.796;2023-11-19T14:26:46;1.27;;;0.98;;
7359;SDS011;3720;48.274;7.796;2023-11-19T14:29:21;0.98;;;0.80;;
7359;SDS011;3720;48.274;7.796;2023-11-19T14:31:53;2.05;;;1.10;;
7359;SDS011;3720;48.274;7.796;2023-11-19T14:34:25;2.42;;;1.20;;
7359;SDS011;3720;48.274;7.796;2023-11-19T14:36:57;2.20;;;0.95;;
7359;SDS011;3720;48.274;7.796;2023-11-19T14:39:30;3.25;;;1.08;;
7359;SDS011;3720;48.274;7.796;2023-11-19T14:42:02;2.97;;;1.10;;
7359;SDS011;3720;48.274;7.796;2023-11-19T14:44:36;2.95;;;0.98;;
7359;SDS011;3720;48.274;7.796;2023-11-19T14:47:08;1.50;;;0.90;;
7359;SDS011;3720;48.274;7.796;2023-11-19T14:49:40;2.50;;;1.00;;
7359;SDS011;3720;48.274;7.796;2023-11-19T14:52:12;1.65;;;0.90;;
7359;SDS011;3720;48.274;7.796;2023-11-19T14:54:44;4.43;;;1.05;;
7359;SDS011;3720;48.274;7.796;2023-11-19T14:57:16;3.10;;;0.80;;
7359;SDS011;3720;48.274;7.796;2023-11-19T14:59:49;3.47;;;0.95;;
7359;SDS011;3720;48.274;7.796;2023-11-19T15:02:21;2.00;;;1.17;;
7359;SDS011;3720;48.274;7.796;2023-11-19T15:04:52;3.25;;;1.13;;
7359;SDS011;3720;48.274;7.796;2023-11-19T15:07:24;2.10;;;0.93;;
7359;SDS011;3720;48.274;7.796;2023-11-19T15:09:56;4.82;;;1.10;;
7359;SDS011;3720;48.274;7.796;2023-11-19T15:12:28;3.00;;;1.00;;
7359;SDS011;3720;48.274;7.796;2023-11-19T15:15:01;0.93;;;0.80;;
7359;SDS011;3720;48.274;7.796;2023-11-19T15:17:33;1.83;;;0.80;;
7359;SDS011;3720;48.274;7.796;2023-11-19T15:20:06;1.38;;;0.90;;
7359;SDS011;3720;48.274;7.796;2023-11-19T15:22:39;4.97;;;1.30;;
7359;SDS011;3720;48.274;7.796;2023-11-19T15:25:11;3.95;;;1.20;;
7359;SDS011;3720;48.274;7.796;2023-11-19T15:27:43;2.97;;;1.13;;
7359;SDS011;3720;48.274;7.796;2023-11-19T15:30:16;4.32;;;1.00;;
7359;SDS011;3720;48.274;7.796;2023-11-19T15:32:48;5.03;;;1.08;;
7359;SDS011;3720;48.274;7.796;2023-11-19T15:35:20;4.22;;;1.20;;
7359;SDS011;3720;48.274;7.796;2023-11-19T15:37:52;4.75;;;1.10;;
7359;SDS011;3720;48.274;7.796;2023-11-19T15:40:25;2.17;;;1.17;;
7359;SDS011;3720;48.274;7.796;2023-11-19T15:42:58;1.77;;;1.00;;
7359;SDS011;3720;48.274;7.796;2023-11-19T15:45:32;3.67;;;1.10;;
7359;SDS011;3720;48.274;7.796;2023-11-19T15:48:07;2.50;;;1.20;;
7359;SDS011;3720;48.274;7.796;2023-11-19T15:50:43;1.93;;;1.00;;
7359;SDS011;3720;48.274;7.796;2023-11-19T15:53:15;3.75;;;1.50;;
7359;SDS011;3720;48.274;7.796;2023-11-19T15:55:48;4.15;;;1.60;;
7359;SDS011;3720;48.274;7.796;2023-11-19T15:58:22;3.90;;;1.30;;
7359;SDS011;3720;48.274;7.796;2023-11-19T16:00:56;4.25;;;1.35;;